KISM/ISM METAR and TAF weather

Enter ICAO airport designator
Station Type Date Time Source
KISM METAR 2019/05/19 20:56 UTC NOAA

KISM 192056Z 00000KT 10SM CLR 32/14 A2999 RMK AO2 SLP157 6//// T03170139 58021 PNO $


Station Type Date Time Source
KISM Decoded METAR 2019/05/19 20:56 UTC NOAA

Orlando, Kissimmee Municipal Airport, FL, United States (KISM) 28-17-23N 081-26-14W
May 19, 2019 - 04:56 PM EDT / 2019.05.19 2056 UTC
Wind: Calm:0
Visibility: 10 mile(s):0
Sky conditions: clear
Temperature: 89.1 F (31.7 C)
Dew Point: 57.0 F (13.9 C)
Relative Humidity: 33%
Pressure (altimeter): 29.99 in. Hg (1015 hPa)
Pressure tendency: 0.06 inches (2.1 hPa) lower than three hours ago
ob: KISM 192056Z 00000KT 10SM CLR 32/14 A2999 RMK AO2 SLP157 6//// T03170139 58021 PNO
cycle: 21

Station Type Date Time Source
KISM TAF 2019/05/19 18:45 UTC NOAA

TAF KISM 191742Z 1918/2018 VRB05KT P6SM SCT045
FM192100 11009KT P6SM VCSH SCT050
FM200300 10003KT P6SM SKC
FM201400 13005KT P6SM SCT025

Example: see airport list